< < Back
Terminal Aerodrome Forecast


Current Version              Previous Versions:   1  2  3  4  5  6  7  8  9  

Terminal Aerodrome Forecast

290
FTUS42 KCAE 310034 AAB
TAFCAE
TAF AMD
KCAE 310034Z 3101/3124 24007KT P6SM SCT070 BKN120
      TEMPO 3101/3102 5SM -RA SCT040 BKN050
     FM310200 21005KT P6SM SCT100
     FM311400 24008KT P6SM SCT040 BKN250
     FM311800 22010KT P6SM BKN045=

Latest METAR

023
SAUS80 KWBC 310100
MTRCAE
METAR KCAE 310056Z 29009KT 10SM SCT100 BKN150 32/21 A2995 RMK AO2 SLP137
T03170206


USA.gov is the U.S. government's official web portal to all federal, state and local government web resources and services.